sensor_id;sensor_type;location;lat;lon;timestamp;P1;durP1;ratioP1;P2;durP2;ratioP2
13408;SDS011;6775;49.574;11.170;2023-04-07T00:01:14;5.87;;;4.10;;
13408;SDS011;6775;49.574;11.170;2023-04-07T00:03:42;5.57;;;4.83;;
13408;SDS011;6775;49.574;11.170;2023-04-07T00:06:10;5.90;;;5.00;;
13408;SDS011;6775;49.574;11.170;2023-04-07T00:08:38;7.93;;;5.60;;
13408;SDS011;6775;49.574;11.170;2023-04-07T00:11:06;6.43;;;5.20;;
13408;SDS011;6775;49.574;11.170;2023-04-07T00:13:36;7.70;;;5.27;;
13408;SDS011;6775;49.574;11.170;2023-04-07T00:16:04;6.53;;;4.83;;
13408;SDS011;6775;49.574;11.170;2023-04-07T00:18:32;6.87;;;5.10;;
13408;SDS011;6775;49.574;11.170;2023-04-07T00:20:59;6.77;;;4.93;;
13408;SDS011;6775;49.574;11.170;2023-04-07T00:23:27;6.47;;;5.00;;
13408;SDS011;6775;49.574;11.170;2023-04-07T00:25:55;5.13;;;4.27;;
13408;SDS011;6775;49.574;11.170;2023-04-07T00:28:23;7.67;;;4.90;;
13408;SDS011;6775;49.574;11.170;2023-04-07T00:30:52;9.53;;;5.77;;
13408;SDS011;6775;49.574;11.170;2023-04-07T00:33:20;7.50;;;5.20;;
13408;SDS011;6775;49.574;11.170;2023-04-07T00:35:48;8.57;;;5.47;;
13408;SDS011;6775;49.574;11.170;2023-04-07T00:38:16;5.97;;;5.03;;
13408;SDS011;6775;49.574;11.170;2023-04-07T00:40:43;8.47;;;5.03;;
13408;SDS011;6775;49.574;11.170;2023-04-07T00:43:11;8.17;;;5.10;;
13408;SDS011;6775;49.574;11.170;2023-04-07T00:45:39;7.47;;;4.77;;
13408;SDS011;6775;49.574;11.170;2023-04-07T00:48:08;6.83;;;5.00;;
13408;SDS011;6775;49.574;11.170;2023-04-07T00:50:36;6.77;;;5.03;;
13408;SDS011;6775;49.574;11.170;2023-04-07T00:53:04;5.33;;;4.50;;
13408;SDS011;6775;49.574;11.170;2023-04-07T00:55:33;10.53;;;5.57;;
13408;SDS011;6775;49.574;11.170;2023-04-07T00:58:00;8.07;;;5.33;;
13408;SDS011;6775;49.574;11.170;2023-04-07T01:00:30;7.73;;;5.53;;
13408;SDS011;6775;49.574;11.170;2023-04-07T01:03:00;6.80;;;5.63;;
13408;SDS011;6775;49.574;11.170;2023-04-07T01:05:37;7.40;;;5.67;;
13408;SDS011;6775;49.574;11.170;2023-04-07T01:08:12;7.80;;;5.53;;
13408;SDS011;6775;49.574;11.170;2023-04-07T01:10:45;8.07;;;5.90;;
13408;SDS011;6775;49.574;11.170;2023-04-07T01:13:21;9.17;;;5.77;;
13408;SDS011;6775;49.574;11.170;2023-04-07T01:15:53;9.90;;;6.03;;
13408;SDS011;6775;49.574;11.170;2023-04-07T01:18:25;9.73;;;6.13;;
13408;SDS011;6775;49.574;11.170;2023-04-07T01:20:59;11.27;;;6.50;;
13408;SDS011;6775;49.574;11.170;2023-04-07T01:23:34;9.13;;;5.77;;
13408;SDS011;6775;49.574;11.170;2023-04-07T01:26:27;9.73;;;6.70;;
13408;SDS011;6775;49.574;11.170;2023-04-07T01:29:09;9.87;;;6.67;;
13408;SDS011;6775;49.574;11.170;2023-04-07T01:31:48;10.23;;;5.57;;
13408;SDS011;6775;49.574;11.170;2023-04-07T01:34:17;7.53;;;5.30;;
13408;SDS011;6775;49.574;11.170;2023-04-07T01:36:45;8.47;;;5.90;;
13408;SDS011;6775;49.574;11.170;2023-04-07T01:39:15;6.97;;;5.33;;
13408;SDS011;6775;49.574;11.170;2023-04-07T01:41:44;6.90;;;5.37;;
13408;SDS011;6775;49.574;11.170;2023-04-07T01:44:13;8.43;;;5.20;;
13408;SDS011;6775;49.574;11.170;2023-04-07T01:46:43;7.30;;;5.37;;
13408;SDS011;6775;49.574;11.170;2023-04-07T01:49:11;7.03;;;5.20;;
13408;SDS011;6775;49.574;11.170;2023-04-07T01:51:41;7.27;;;5.40;;
13408;SDS011;6775;49.574;11.170;2023-04-07T01:54:09;7.73;;;5.57;;
13408;SDS011;6775;49.574;11.170;2023-04-07T01:56:37;7.97;;;5.77;;
13408;SDS011;6775;49.574;11.170;2023-04-07T01:59:05;8.87;;;5.60;;
13408;SDS011;6775;49.574;11.170;2023-04-07T02:01:32;6.47;;;5.33;;
13408;SDS011;6775;49.574;11.170;2023-04-07T02:04:04;6.83;;;5.07;;
13408;SDS011;6775;49.574;11.170;2023-04-07T02:06:37;8.33;;;5.60;;
13408;SDS011;6775;49.574;11.170;2023-04-07T02:09:09;6.13;;;5.23;;
13408;SDS011;6775;49.574;11.170;2023-04-07T02:11:39;8.50;;;6.23;;
13408;SDS011;6775;49.574;11.170;2023-04-07T02:14:09;9.27;;;6.03;;
13408;SDS011;6775;49.574;11.170;2023-04-07T02:16:38;8.10;;;5.67;;
13408;SDS011;6775;49.574;11.170;2023-04-07T02:19:10;7.17;;;4.93;;
13408;SDS011;6775;49.574;11.170;2023-04-07T02:21:38;9.07;;;6.10;;
13408;SDS011;6775;49.574;11.170;2023-04-07T02:24:07;8.73;;;5.87;;
13408;SDS011;6775;49.574;11.170;2023-04-07T02:26:38;6.57;;;5.50;;
13408;SDS011;6775;49.574;11.170;2023-04-07T02:29:06;7.67;;;5.60;;
13408;SDS011;6775;49.574;11.170;2023-04-07T02:31:34;8.40;;;6.13;;
13408;SDS011;6775;49.574;11.170;2023-04-07T02:34:02;6.70;;;5.17;;
13408;SDS011;6775;49.574;11.170;2023-04-07T02:36:31;6.90;;;5.30;;
13408;SDS011;6775;49.574;11.170;2023-04-07T02:38:59;9.07;;;5.90;;
13408;SDS011;6775;49.574;11.170;2023-04-07T02:41:27;7.03;;;5.30;;
13408;SDS011;6775;49.574;11.170;2023-04-07T02:43:55;7.17;;;5.40;;
13408;SDS011;6775;49.574;11.170;2023-04-07T02:46:23;7.67;;;5.20;;
13408;SDS011;6775;49.574;11.170;2023-04-07T02:48:51;7.60;;;5.30;;
13408;SDS011;6775;49.574;11.170;2023-04-07T02:51:19;6.17;;;5.27;;
13408;SDS011;6775;49.574;11.170;2023-04-07T02:53:48;7.00;;;6.00;;
13408;SDS011;6775;49.574;11.170;2023-04-07T02:56:16;6.00;;;5.00;;
13408;SDS011;6775;49.574;11.170;2023-04-07T02:58:44;7.30;;;5.50;;
13408;SDS011;6775;49.574;11.170;2023-04-07T03:01:12;7.87;;;5.30;;
13408;SDS011;6775;49.574;11.170;2023-04-07T03:03:40;7.43;;;5.60;;
13408;SDS011;6775;49.574;11.170;2023-04-07T03:06:10;7.10;;;5.40;;
13408;SDS011;6775;49.574;11.170;2023-04-07T03:08:37;8.00;;;6.00;;
13408;SDS011;6775;49.574;11.170;2023-04-07T03:11:06;7.13;;;5.40;;
13408;SDS011;6775;49.574;11.170;2023-04-07T03:13:34;7.63;;;4.93;;
13408;SDS011;6775;49.574;11.170;2023-04-07T03:16:02;6.23;;;4.97;;
13408;SDS011;6775;49.574;11.170;2023-04-07T03:18:30;8.50;;;5.50;;
13408;SDS011;6775;49.574;11.170;2023-04-07T03:20:58;6.60;;;5.37;;
13408;SDS011;6775;49.574;11.170;2023-04-07T03:23:25;8.23;;;5.60;;
13408;SDS011;6775;49.574;11.170;2023-04-07T03:25:54;7.00;;;5.47;;
13408;SDS011;6775;49.574;11.170;2023-04-07T03:28:24;5.57;;;4.93;;
13408;SDS011;6775;49.574;11.170;2023-04-07T03:30:52;6.77;;;4.93;;
13408;SDS011;6775;49.574;11.170;2023-04-07T03:33:20;7.53;;;5.30;;
13408;SDS011;6775;49.574;11.170;2023-04-07T03:35:47;8.10;;;4.90;;
13408;SDS011;6775;49.574;11.170;2023-04-07T03:38:15;7.00;;;5.00;;
13408;SDS011;6775;49.574;11.170;2023-04-07T03:40:43;6.00;;;4.87;;
13408;SDS011;6775;49.574;11.170;2023-04-07T03:43:11;5.17;;;4.67;;
13408;SDS011;6775;49.574;11.170;2023-04-07T03:45:42;9.50;;;5.50;;
13408;SDS011;6775;49.574;11.170;2023-04-07T03:48:10;7.83;;;5.57;;
13408;SDS011;6775;49.574;11.170;2023-04-07T03:50:38;6.40;;;5.53;;
13408;SDS011;6775;49.574;11.170;2023-04-07T03:53:06;6.93;;;5.00;;
13408;SDS011;6775;49.574;11.170;2023-04-07T03:55:34;7.37;;;5.50;;
13408;SDS011;6775;49.574;11.170;2023-04-07T03:58:02;6.10;;;5.50;;
13408;SDS011;6775;49.574;11.170;2023-04-07T04:00:30;5.07;;;4.53;;
13408;SDS011;6775;49.574;11.170;2023-04-07T04:03:00;5.73;;;4.77;;
13408;SDS011;6775;49.574;11.170;2023-04-07T04:05:28;7.63;;;5.27;;
13408;SDS011;6775;49.574;11.170;2023-04-07T04:07:56;7.07;;;5.20;;
13408;SDS011;6775;49.574;11.170;2023-04-07T04:10:24;6.90;;;5.23;;
13408;SDS011;6775;49.574;11.170;2023-04-07T04:12:52;6.30;;;5.33;;
13408;SDS011;6775;49.574;11.170;2023-04-07T04:15:20;6.10;;;5.10;;
13408;SDS011;6775;49.574;11.170;2023-04-07T04:17:48;5.67;;;5.00;;
13408;SDS011;6775;49.574;11.170;2023-04-07T04:20:17;5.83;;;5.00;;
13408;SDS011;6775;49.574;11.170;2023-04-07T04:22:47;6.80;;;5.10;;
13408;SDS011;6775;49.574;11.170;2023-04-07T04:25:15;7.27;;;4.87;;
13408;SDS011;6775;49.574;11.170;2023-04-07T04:27:42;7.87;;;5.20;;
13408;SDS011;6775;49.574;11.170;2023-04-07T04:30:10;5.27;;;4.77;;
13408;SDS011;6775;49.574;11.170;2023-04-07T04:32:38;8.30;;;5.17;;
13408;SDS011;6775;49.574;11.170;2023-04-07T04:35:06;7.83;;;5.47;;
13408;SDS011;6775;49.574;11.170;2023-04-07T04:37:36;10.03;;;5.80;;
13408;SDS011;6775;49.574;11.170;2023-04-07T04:40:05;6.33;;;4.93;;
13408;SDS011;6775;49.574;11.170;2023-04-07T04:42:34;6.97;;;4.60;;
13408;SDS011;6775;49.574;11.170;2023-04-07T04:45:02;6.83;;;4.83;;
13408;SDS011;6775;49.574;11.170;2023-04-07T04:47:30;6.93;;;5.20;;
13408;SDS011;6775;49.574;11.170;2023-04-07T04:49:58;6.17;;;5.17;;
13408;SDS011;6775;49.574;11.170;2023-04-07T04:52:26;7.57;;;5.53;;
13408;SDS011;6775;49.574;11.170;2023-04-07T04:54:56;6.77;;;4.73;;
13408;SDS011;6775;49.574;11.170;2023-04-07T04:57:24;7.67;;;4.87;;
13408;SDS011;6775;49.574;11.170;2023-04-07T04:59:52;7.63;;;5.40;;
13408;SDS011;6775;49.574;11.170;2023-04-07T05:02:19;7.07;;;5.10;;
13408;SDS011;6775;49.574;11.170;2023-04-07T05:04:47;8.20;;;5.20;;
13408;SDS011;6775;49.574;11.170;2023-04-07T05:07:15;7.00;;;4.93;;
13408;SDS011;6775;49.574;11.170;2023-04-07T05:09:43;8.73;;;5.50;;
13408;SDS011;6775;49.574;11.170;2023-04-07T05:12:12;7.40;;;5.37;;
13408;SDS011;6775;49.574;11.170;2023-04-07T05:14:40;6.97;;;5.40;;
13408;SDS011;6775;49.574;11.170;2023-04-07T05:17:08;8.63;;;5.83;;
13408;SDS011;6775;49.574;11.170;2023-04-07T05:19:36;7.67;;;5.27;;
13408;SDS011;6775;49.574;11.170;2023-04-07T05:22:04;7.63;;;5.40;;
13408;SDS011;6775;49.574;11.170;2023-04-07T05:24:32;8.03;;;5.87;;
13408;SDS011;6775;49.574;11.170;2023-04-07T05:26:59;7.43;;;5.13;;
13408;SDS011;6775;49.574;11.170;2023-04-07T05:29:28;6.43;;;5.63;;
13408;SDS011;6775;49.574;11.170;2023-04-07T05:31:56;6.57;;;5.47;;
13408;SDS011;6775;49.574;11.170;2023-04-07T05:34:26;7.53;;;5.43;;
13408;SDS011;6775;49.574;11.170;2023-04-07T05:36:54;9.13;;;5.87;;
13408;SDS011;6775;49.574;11.170;2023-04-07T05:39:22;7.63;;;5.53;;
13408;SDS011;6775;49.574;11.170;2023-04-07T05:41:50;8.87;;;6.17;;
13408;SDS011;6775;49.574;11.170;2023-04-07T05:44:18;7.57;;;5.67;;
13408;SDS011;6775;49.574;11.170;2023-04-07T05:46:47;8.37;;;5.97;;
13408;SDS011;6775;49.574;11.170;2023-04-07T05:49:15;6.73;;;5.20;;
13408;SDS011;6775;49.574;11.170;2023-04-07T05:51:45;6.03;;;4.90;;
13408;SDS011;6775;49.574;11.170;2023-04-07T05:54:14;7.20;;;5.43;;
13408;SDS011;6775;49.574;11.170;2023-04-07T05:56:42;7.00;;;5.67;;
13408;SDS011;6775;49.574;11.170;2023-04-07T05:59:10;6.97;;;5.63;;
13408;SDS011;6775;49.574;11.170;2023-04-07T06:01:38;7.70;;;5.40;;
13408;SDS011;6775;49.574;11.170;2023-04-07T06:04:07;8.13;;;6.30;;
13408;SDS011;6775;49.574;11.170;2023-04-07T06:06:35;9.17;;;5.67;;
13408;SDS011;6775;49.574;11.170;2023-04-07T06:09:03;8.97;;;6.27;;
13408;SDS011;6775;49.574;11.170;2023-04-07T06:11:33;8.67;;;6.17;;
13408;SDS011;6775;49.574;11.170;2023-04-07T06:14:01;7.80;;;6.23;;
13408;SDS011;6775;49.574;11.170;2023-04-07T06:16:29;6.20;;;5.43;;
13408;SDS011;6775;49.574;11.170;2023-04-07T06:18:57;8.90;;;5.73;;
13408;SDS011;6775;49.574;11.170;2023-04-07T06:21:26;7.63;;;5.83;;
13408;SDS011;6775;49.574;11.170;2023-04-07T06:23:54;8.73;;;5.83;;
13408;SDS011;6775;49.574;11.170;2023-04-07T06:26:22;7.33;;;5.30;;
13408;SDS011;6775;49.574;11.170;2023-04-07T06:28:50;8.37;;;5.80;;
13408;SDS011;6775;49.574;11.170;2023-04-07T06:31:18;7.37;;;5.27;;
13408;SDS011;6775;49.574;11.170;2023-04-07T06:33:46;8.23;;;5.73;;
13408;SDS011;6775;49.574;11.170;2023-04-07T06:36:14;6.20;;;5.33;;
13408;SDS011;6775;49.574;11.170;2023-04-07T06:38:43;7.40;;;5.63;;
13408;SDS011;6775;49.574;11.170;2023-04-07T06:41:12;7.90;;;5.67;;
13408;SDS011;6775;49.574;11.170;2023-04-07T06:43:42;8.57;;;5.60;;
13408;SDS011;6775;49.574;11.170;2023-04-07T06:46:10;6.63;;;4.97;;
13408;SDS011;6775;49.574;11.170;2023-04-07T06:48:38;6.63;;;5.43;;
13408;SDS011;6775;49.574;11.170;2023-04-07T06:51:06;6.67;;;4.70;;
13408;SDS011;6775;49.574;11.170;2023-04-07T06:53:33;7.47;;;5.63;;
13408;SDS011;6775;49.574;11.170;2023-04-07T06:56:03;7.73;;;5.93;;
13408;SDS011;6775;49.574;11.170;2023-04-07T06:58:32;7.40;;;5.77;;
13408;SDS011;6775;49.574;11.170;2023-04-07T07:01:00;7.53;;;5.40;;
13408;SDS011;6775;49.574;11.170;2023-04-07T07:03:29;7.73;;;5.93;;
13408;SDS011;6775;49.574;11.170;2023-04-07T07:05:57;9.83;;;6.23;;
13408;SDS011;6775;49.574;11.170;2023-04-07T07:08:25;9.30;;;6.43;;
13408;SDS011;6775;49.574;11.170;2023-04-07T07:10:54;8.53;;;6.57;;
13408;SDS011;6775;49.574;11.170;2023-04-07T07:13:23;8.57;;;6.43;;
13408;SDS011;6775;49.574;11.170;2023-04-07T07:15:52;8.77;;;6.53;;
13408;SDS011;6775;49.574;11.170;2023-04-07T07:18:20;8.57;;;6.23;;
13408;SDS011;6775;49.574;11.170;2023-04-07T07:20:48;8.10;;;6.07;;
13408;SDS011;6775;49.574;11.170;2023-04-07T07:23:16;7.37;;;6.00;;
13408;SDS011;6775;49.574;11.170;2023-04-07T07:25:44;8.27;;;6.23;;
13408;SDS011;6775;49.574;11.170;2023-04-07T07:28:11;7.67;;;6.20;;
13408;SDS011;6775;49.574;11.170;2023-04-07T07:30:41;7.90;;;6.03;;
13408;SDS011;6775;49.574;11.170;2023-04-07T07:33:09;8.23;;;6.20;;
13408;SDS011;6775;49.574;11.170;2023-04-07T07:35:36;9.87;;;5.70;;
13408;SDS011;6775;49.574;11.170;2023-04-07T07:38:05;10.20;;;6.53;;
13408;SDS011;6775;49.574;11.170;2023-04-07T07:40:33;7.40;;;5.87;;
13408;SDS011;6775;49.574;11.170;2023-04-07T07:43:01;8.40;;;6.30;;
13408;SDS011;6775;49.574;11.170;2023-04-07T07:45:29;7.83;;;5.90;;
13408;SDS011;6775;49.574;11.170;2023-04-07T07:47:58;8.63;;;5.70;;
13408;SDS011;6775;49.574;11.170;2023-04-07T07:50:26;6.67;;;5.53;;
13408;SDS011;6775;49.574;11.170;2023-04-07T07:52:53;7.90;;;5.90;;
13408;SDS011;6775;49.574;11.170;2023-04-07T07:55:21;9.47;;;5.80;;
13408;SDS011;6775;49.574;11.170;2023-04-07T07:57:49;8.43;;;6.53;;
13408;SDS011;6775;49.574;11.170;2023-04-07T08:00:17;9.17;;;6.87;;
13408;SDS011;6775;49.574;11.170;2023-04-07T08:02:45;9.70;;;6.57;;
13408;SDS011;6775;49.574;11.170;2023-04-07T08:05:14;9.13;;;6.53;;
13408;SDS011;6775;49.574;11.170;2023-04-07T08:07:42;10.43;;;7.00;;
13408;SDS011;6775;49.574;11.170;2023-04-07T08:10:12;9.13;;;6.67;;
13408;SDS011;6775;49.574;11.170;2023-04-07T08:12:39;8.80;;;6.50;;
13408;SDS011;6775;49.574;11.170;2023-04-07T08:15:07;9.80;;;6.53;;
13408;SDS011;6775;49.574;11.170;2023-04-07T08:17:35;9.57;;;6.13;;
13408;SDS011;6775;49.574;11.170;2023-04-07T08:20:04;10.40;;;6.50;;
13408;SDS011;6775;49.574;11.170;2023-04-07T08:22:34;10.10;;;7.07;;
13408;SDS011;6775;49.574;11.170;2023-04-07T08:25:01;10.43;;;7.47;;
13408;SDS011;6775;49.574;11.170;2023-04-07T08:27:29;11.00;;;7.00;;
13408;SDS011;6775;49.574;11.170;2023-04-07T08:29:58;7.47;;;5.77;;
13408;SDS011;6775;49.574;11.170;2023-04-07T08:32:32;9.53;;;6.97;;
13408;SDS011;6775;49.574;11.170;2023-04-07T08:35:01;9.37;;;6.87;;
13408;SDS011;6775;49.574;11.170;2023-04-07T08:37:29;10.60;;;6.63;;
13408;SDS011;6775;49.574;11.170;2023-04-07T08:39:59;9.93;;;7.33;;
13408;SDS011;6775;49.574;11.170;2023-04-07T08:42:27;8.97;;;7.00;;
13408;SDS011;6775;49.574;11.170;2023-04-07T08:44:58;9.23;;;6.63;;
13408;SDS011;6775;49.574;11.170;2023-04-07T08:47:29;11.47;;;7.27;;
13408;SDS011;6775;49.574;11.170;2023-04-07T08:50:00;11.10;;;7.50;;
13408;SDS011;6775;49.574;11.170;2023-04-07T08:52:33;9.50;;;6.60;;
13408;SDS011;6775;49.574;11.170;2023-04-07T08:55:05;8.60;;;6.10;;
13408;SDS011;6775;49.574;11.170;2023-04-07T08:57:34;10.93;;;6.53;;
13408;SDS011;6775;49.574;11.170;2023-04-07T09:00:03;10.57;;;7.40;;
13408;SDS011;6775;49.574;11.170;2023-04-07T09:02:32;8.57;;;6.30;;
13408;SDS011;6775;49.574;11.170;2023-04-07T09:05:01;7.37;;;5.77;;
13408;SDS011;6775;49.574;11.170;2023-04-07T09:07:31;8.80;;;6.70;;
13408;SDS011;6775;49.574;11.170;2023-04-07T09:09:59;10.40;;;7.67;;
13408;SDS011;6775;49.574;11.170;2023-04-07T09:12:29;11.47;;;7.57;;
13408;SDS011;6775;49.574;11.170;2023-04-07T09:14:57;9.37;;;7.23;;
13408;SDS011;6775;49.574;11.170;2023-04-07T09:17:26;12.27;;;7.97;;
13408;SDS011;6775;49.574;11.170;2023-04-07T09:19:55;11.00;;;7.80;;
13408;SDS011;6775;49.574;11.170;2023-04-07T09:22:33;8.37;;;6.33;;
13408;SDS011;6775;49.574;11.170;2023-04-07T09:25:11;10.47;;;7.63;;
13408;SDS011;6775;49.574;11.170;2023-04-07T09:27:41;10.40;;;7.53;;
13408;SDS011;6775;49.574;11.170;2023-04-07T09:30:24;11.20;;;7.83;;
13408;SDS011;6775;49.574;11.170;2023-04-07T09:32:52;10.53;;;8.27;;
13408;SDS011;6775;49.574;11.170;2023-04-07T09:35:21;10.10;;;7.53;;
13408;SDS011;6775;49.574;11.170;2023-04-07T09:38:02;10.30;;;7.77;;
13408;SDS011;6775;49.574;11.170;2023-04-07T09:40:31;11.10;;;8.23;;
13408;SDS011;6775;49.574;11.170;2023-04-07T09:43:00;10.53;;;7.50;;
13408;SDS011;6775;49.574;11.170;2023-04-07T09:45:30;11.17;;;8.20;;
13408;SDS011;6775;49.574;11.170;2023-04-07T09:48:05;10.63;;;7.93;;
13408;SDS011;6775;49.574;11.170;2023-04-07T09:50:34;11.47;;;8.37;;
13408;SDS011;6775;49.574;11.170;2023-04-07T09:53:03;10.00;;;7.50;;
13408;SDS011;6775;49.574;11.170;2023-04-07T09:55:31;14.40;;;11.97;;
13408;SDS011;6775;49.574;11.170;2023-04-07T09:58:01;10.47;;;8.20;;
13408;SDS011;6775;49.574;11.170;2023-04-07T10:00:31;11.20;;;7.87;;
13408;SDS011;6775;49.574;11.170;2023-04-07T10:02:59;9.73;;;7.40;;
13408;SDS011;6775;49.574;11.170;2023-04-07T10:05:28;9.13;;;7.50;;
13408;SDS011;6775;49.574;11.170;2023-04-07T10:07:59;11.40;;;7.93;;
13408;SDS011;6775;49.574;11.170;2023-04-07T10:10:27;8.40;;;7.20;;
13408;SDS011;6775;49.574;11.170;2023-04-07T10:12:57;11.70;;;7.60;;
13408;SDS011;6775;49.574;11.170;2023-04-07T10:15:26;9.37;;;7.77;;
13408;SDS011;6775;49.574;11.170;2023-04-07T10:17:54;12.67;;;8.43;;
13408;SDS011;6775;49.574;11.170;2023-04-07T10:20:23;12.57;;;8.80;;
13408;SDS011;6775;49.574;11.170;2023-04-07T10:22:51;11.30;;;7.70;;
13408;SDS011;6775;49.574;11.170;2023-04-07T10:25:22;10.10;;;8.27;;
13408;SDS011;6775;49.574;11.170;2023-04-07T10:27:51;12.00;;;8.60;;
13408;SDS011;6775;49.574;11.170;2023-04-07T10:30:22;10.40;;;7.53;;
13408;SDS011;6775;49.574;11.170;2023-04-07T10:32:53;10.43;;;7.70;;
13408;SDS011;6775;49.574;11.170;2023-04-07T10:35:22;10.07;;;7.67;;
13408;SDS011;6775;49.574;11.170;2023-04-07T10:38:10;10.20;;;7.63;;
13408;SDS011;6775;49.574;11.170;2023-04-07T10:40:42;12.57;;;9.57;;
13408;SDS011;6775;49.574;11.170;2023-04-07T10:43:10;9.27;;;8.03;;
13408;SDS011;6775;49.574;11.170;2023-04-07T10:45:52;9.30;;;7.23;;
13408;SDS011;6775;49.574;11.170;2023-04-07T10:48:27;12.07;;;8.00;;
13408;SDS011;6775;49.574;11.170;2023-04-07T10:51:11;11.97;;;8.30;;
13408;SDS011;6775;49.574;11.170;2023-04-07T10:57:04;9.67;;;7.80;;
13408;SDS011;6775;49.574;11.170;2023-04-07T10:59:35;14.07;;;8.73;;
13408;SDS011;6775;49.574;11.170;2023-04-07T11:05:02;11.37;;;7.97;;
13408;SDS011;6775;49.574;11.170;2023-04-07T11:07:46;12.17;;;7.97;;
13408;SDS011;6775;49.574;11.170;2023-04-07T11:10:24;11.10;;;8.27;;
13408;SDS011;6775;49.574;11.170;2023-04-07T11:13:02;10.27;;;7.93;;
13408;SDS011;6775;49.574;11.170;2023-04-07T11:15:31;9.57;;;7.67;;
13408;SDS011;6775;49.574;11.170;2023-04-07T11:18:11;10.00;;;7.47;;
13408;SDS011;6775;49.574;11.170;2023-04-07T11:20:46;8.60;;;6.90;;
13408;SDS011;6775;49.574;11.170;2023-04-07T11:23:15;11.10;;;8.60;;
13408;SDS011;6775;49.574;11.170;2023-04-07T11:25:45;7.30;;;6.43;;
13408;SDS011;6775;49.574;11.170;2023-04-07T11:28:15;8.77;;;6.97;;
13408;SDS011;6775;49.574;11.170;2023-04-07T11:30:44;9.10;;;7.13;;
13408;SDS011;6775;49.574;11.170;2023-04-07T11:33:15;10.83;;;7.63;;
13408;SDS011;6775;49.574;11.170;2023-04-07T11:35:49;10.43;;;7.73;;
13408;SDS011;6775;49.574;11.170;2023-04-07T11:38:18;6.37;;;5.50;;
13408;SDS011;6775;49.574;11.170;2023-04-07T11:40:47;6.70;;;6.00;;
13408;SDS011;6775;49.574;11.170;2023-04-07T11:43:15;7.47;;;6.47;;
13408;SDS011;6775;49.574;11.170;2023-04-07T11:45:45;6.90;;;5.40;;
13408;SDS011;6775;49.574;11.170;2023-04-07T11:48:25;7.40;;;6.57;;
13408;SDS011;6775;49.574;11.170;2023-04-07T11:50:56;8.10;;;6.50;;
13408;SDS011;6775;49.574;11.170;2023-04-07T11:53:25;8.53;;;6.40;;
13408;SDS011;6775;49.574;11.170;2023-04-07T11:56:00;9.00;;;7.13;;
13408;SDS011;6775;49.574;11.170;2023-04-07T11:58:28;9.10;;;7.70;;
13408;SDS011;6775;49.574;11.170;2023-04-07T12:00:57;6.80;;;6.07;;
13408;SDS011;6775;49.574;11.170;2023-04-07T12:03:30;7.47;;;5.73;;
13408;SDS011;6775;49.574;11.170;2023-04-07T12:06:00;9.00;;;6.33;;
13408;SDS011;6775;49.574;11.170;2023-04-07T12:08:37;7.97;;;7.03;;
13408;SDS011;6775;49.574;11.170;2023-04-07T12:11:07;8.20;;;6.50;;
13408;SDS011;6775;49.574;11.170;2023-04-07T12:13:35;6.80;;;6.10;;
13408;SDS011;6775;49.574;11.170;2023-04-07T12:16:04;6.43;;;5.63;;
13408;SDS011;6775;49.574;11.170;2023-04-07T12:18:32;6.23;;;4.90;;
13408;SDS011;6775;49.574;11.170;2023-04-07T12:21:01;4.50;;;4.10;;
13408;SDS011;6775;49.574;11.170;2023-04-07T12:23:29;4.83;;;4.33;;
13408;SDS011;6775;49.574;11.170;2023-04-07T12:25:57;5.43;;;4.90;;
13408;SDS011;6775;49.574;11.170;2023-04-07T12:28:25;4.50;;;4.10;;
13408;SDS011;6775;49.574;11.170;2023-04-07T12:30:52;5.77;;;5.03;;
13408;SDS011;6775;49.574;11.170;2023-04-07T12:33:21;8.33;;;6.77;;
13408;SDS011;6775;49.574;11.170;2023-04-07T12:35:48;8.60;;;6.43;;
13408;SDS011;6775;49.574;11.170;2023-04-07T12:38:18;8.10;;;7.00;;
13408;SDS011;6775;49.574;11.170;2023-04-07T12:40:46;6.43;;;5.83;;
13408;SDS011;6775;49.574;11.170;2023-04-07T12:43:14;5.70;;;5.10;;
13408;SDS011;6775;49.574;11.170;2023-04-07T12:45:42;7.93;;;6.97;;
13408;SDS011;6775;49.574;11.170;2023-04-07T12:48:09;7.60;;;6.80;;
13408;SDS011;6775;49.574;11.170;2023-04-07T12:50:37;7.93;;;6.33;;
13408;SDS011;6775;49.574;11.170;2023-04-07T12:53:05;6.10;;;5.30;;
13408;SDS011;6775;49.574;11.170;2023-04-07T12:55:35;7.23;;;5.60;;
13408;SDS011;6775;49.574;11.170;2023-04-07T12:58:03;5.33;;;4.33;;
13408;SDS011;6775;49.574;11.170;2023-04-07T13:00:31;6.50;;;5.90;;
13408;SDS011;6775;49.574;11.170;2023-04-07T13:02:59;6.23;;;5.73;;
13408;SDS011;6775;49.574;11.170;2023-04-07T13:05:27;5.70;;;4.90;;
13408;SDS011;6775;49.574;11.170;2023-04-07T13:07:55;4.57;;;4.17;;
13408;SDS011;6775;49.574;11.170;2023-04-07T13:10:23;4.63;;;4.10;;
13408;SDS011;6775;49.574;11.170;2023-04-07T13:12:52;4.87;;;4.37;;
13408;SDS011;6775;49.574;11.170;2023-04-07T13:15:20;4.40;;;3.40;;
13408;SDS011;6775;49.574;11.170;2023-04-07T13:17:48;4.23;;;3.83;;
13408;SDS011;6775;49.574;11.170;2023-04-07T13:20:16;3.83;;;3.50;;
13408;SDS011;6775;49.574;11.170;2023-04-07T13:22:46;4.57;;;3.90;;
13408;SDS011;6775;49.574;11.170;2023-04-07T13:25:28;4.93;;;4.20;;
13408;SDS011;6775;49.574;11.170;2023-04-07T13:27:57;3.77;;;3.47;;
13408;SDS011;6775;49.574;11.170;2023-04-07T13:30:25;6.63;;;4.23;;
13408;SDS011;6775;49.574;11.170;2023-04-07T13:32:53;5.57;;;5.07;;
13408;SDS011;6775;49.574;11.170;2023-04-07T13:35:21;6.47;;;5.87;;
13408;SDS011;6775;49.574;11.170;2023-04-07T13:37:49;5.30;;;4.80;;
13408;SDS011;6775;49.574;11.170;2023-04-07T13:40:17;4.83;;;3.50;;
13408;SDS011;6775;49.574;11.170;2023-04-07T13:42:45;4.00;;;3.60;;
13408;SDS011;6775;49.574;11.170;2023-04-07T13:45:14;7.50;;;5.93;;
13408;SDS011;6775;49.574;11.170;2023-04-07T13:47:42;4.40;;;3.77;;
13408;SDS011;6775;49.574;11.170;2023-04-07T13:50:11;4.27;;;3.63;;
13408;SDS011;6775;49.574;11.170;2023-04-07T13:52:38;3.47;;;3.17;;
13408;SDS011;6775;49.574;11.170;2023-04-07T13:55:07;3.90;;;3.20;;
13408;SDS011;6775;49.574;11.170;2023-04-07T13:57:35;3.10;;;2.80;;
13408;SDS011;6775;49.574;11.170;2023-04-07T14:00:03;4.47;;;3.10;;
13408;SDS011;6775;49.574;11.170;2023-04-07T14:02:34;4.33;;;3.30;;
13408;SDS011;6775;49.574;11.170;2023-04-07T14:05:02;3.80;;;3.37;;
13408;SDS011;6775;49.574;11.170;2023-04-07T14:07:30;4.00;;;3.43;;
13408;SDS011;6775;49.574;11.170;2023-04-07T14:09:57;3.93;;;3.53;;
13408;SDS011;6775;49.574;11.170;2023-04-07T14:12:25;4.07;;;3.20;;
13408;SDS011;6775;49.574;11.170;2023-04-07T14:14:53;6.17;;;3.90;;
13408;SDS011;6775;49.574;11.170;2023-04-07T14:17:21;7.00;;;4.70;;
13408;SDS011;6775;49.574;11.170;2023-04-07T14:19:51;5.23;;;4.30;;
13408;SDS011;6775;49.574;11.170;2023-04-07T14:22:19;6.73;;;5.33;;
13408;SDS011;6775;49.574;11.170;2023-04-07T14:24:47;6.47;;;4.50;;
13408;SDS011;6775;49.574;11.170;2023-04-07T14:27:14;5.73;;;4.40;;
13408;SDS011;6775;49.574;11.170;2023-04-07T14:29:46;6.50;;;5.50;;
13408;SDS011;6775;49.574;11.170;2023-04-07T14:32:14;5.70;;;5.10;;
13408;SDS011;6775;49.574;11.170;2023-04-07T14:34:41;5.43;;;4.33;;
13408;SDS011;6775;49.574;11.170;2023-04-07T14:37:10;4.57;;;4.17;;
13408;SDS011;6775;49.574;11.170;2023-04-07T14:39:39;4.60;;;4.00;;
13408;SDS011;6775;49.574;11.170;2023-04-07T14:42:20;4.90;;;4.17;;
13408;SDS011;6775;49.574;11.170;2023-04-07T14:44:48;5.73;;;4.33;;
13408;SDS011;6775;49.574;11.170;2023-04-07T14:47:16;4.97;;;4.20;;
13408;SDS011;6775;49.574;11.170;2023-04-07T14:49:44;6.43;;;5.03;;
13408;SDS011;6775;49.574;11.170;2023-04-07T14:52:13;4.70;;;4.20;;
13408;SDS011;6775;49.574;11.170;2023-04-07T14:54:41;5.80;;;5.17;;
13408;SDS011;6775;49.574;11.170;2023-04-07T14:57:08;5.40;;;4.47;;
13408;SDS011;6775;49.574;11.170;2023-04-07T14:59:37;5.03;;;4.33;;
13408;SDS011;6775;49.574;11.170;2023-04-07T15:02:05;4.57;;;3.77;;
13408;SDS011;6775;49.574;11.170;2023-04-07T15:04:33;5.17;;;4.30;;